createdAt,value
2019-04-30T00:00:38.296Z,57.70
2019-04-30T00:03:25.838Z,57.90
2019-04-30T00:05:55.589Z,57.90
2019-04-30T00:08:23.405Z,57.80
2019-04-30T00:10:51.492Z,58.00
2019-04-30T00:13:20.976Z,57.90
2019-04-30T00:15:52.686Z,57.80
2019-04-30T00:18:18.614Z,58.00
2019-04-30T00:20:47.096Z,58.30
2019-04-30T00:23:17.769Z,58.50
2019-04-30T00:25:46.016Z,58.60
2019-04-30T00:28:15.550Z,58.40
2019-04-30T00:30:43.947Z,58.50
2019-04-30T00:33:15.338Z,58.40
2019-04-30T00:35:42.657Z,58.60
2019-04-30T00:38:10.442Z,58.40
2019-04-30T00:40:38.264Z,58.40
2019-04-30T00:43:09.038Z,58.70
2019-04-30T00:45:39.933Z,58.90
2019-04-30T00:48:06.014Z,59.30
2019-04-30T00:50:37.124Z,59.00
2019-04-30T00:53:05.976Z,59.10
2019-04-30T00:55:33.389Z,59.40
2019-04-30T00:58:01.177Z,59.60
2019-04-30T01:00:30.858Z,59.50
2019-04-30T01:03:12.444Z,59.30
2019-04-30T01:05:46.414Z,59.50
2019-04-30T01:08:09.894Z,59.60
2019-04-30T01:10:37.882Z,59.30
2019-04-30T01:13:08.209Z,58.90
2019-04-30T01:15:35.433Z,58.90
2019-04-30T01:18:03.423Z,59.00
2019-04-30T01:20:32.808Z,58.80
2019-04-30T01:23:03.115Z,59.00
2019-04-30T01:25:30.668Z,58.90
2019-04-30T01:27:58.671Z,59.10
2019-04-30T01:30:28.375Z,58.70
2019-04-30T01:32:57.147Z,58.90
2019-04-30T01:35:30.923Z,59.10
2019-04-30T01:37:55.313Z,59.20
2019-04-30T01:40:23.166Z,58.90
2019-04-30T01:42:51.981Z,59.00
2019-04-30T01:45:23.237Z,58.70
2019-04-30T01:47:49.653Z,59.00
2019-04-30T01:50:19.269Z,58.70
2019-04-30T01:52:52.995Z,58.80
2019-04-30T01:55:26.374Z,58.60
2019-04-30T01:58:16.248Z,58.60
2019-04-30T02:00:52.959Z,58.90
2019-04-30T02:03:20.838Z,58.50
2019-04-30T02:05:49.831Z,58.20
2019-04-30T02:08:19.482Z,58.30
2019-04-30T02:10:49.189Z,58.50
2019-04-30T02:13:18.776Z,58.70
2019-04-30T02:15:46.790Z,58.20
2019-04-30T02:18:14.554Z,58.80
2019-04-30T02:20:42.365Z,58.60
2019-04-30T02:23:10.515Z,58.40
2019-04-30T02:25:39.619Z,58.10
2019-04-30T02:28:08.954Z,58.30
2019-04-30T02:30:36.891Z,58.50
2019-04-30T02:33:05.467Z,58.40
2019-04-30T02:35:46.398Z,58.70
2019-04-30T02:38:24.187Z,58.40
2019-04-30T02:40:52.369Z,58.90
2019-04-30T02:43:22.245Z,58.10
2019-04-30T02:45:52.236Z,58.20
2019-04-30T02:48:22.226Z,58.50
2019-04-30T02:50:52.424Z,58.20
2019-04-30T02:54:10.014Z,58.10
2019-04-30T02:56:40.001Z,57.90
2019-04-30T02:59:09.888Z,57.90
2019-04-30T03:01:40.025Z,57.50
2019-04-30T03:04:09.640Z,57.80
2019-04-30T03:06:36.530Z,57.80
2019-04-30T03:09:05.951Z,57.20
2019-04-30T03:11:33.783Z,57.30
2019-04-30T03:14:01.565Z,58.40
2019-04-30T03:16:53.229Z,59.00
2019-04-30T03:19:42.669Z,59.20
2019-04-30T03:22:20.361Z,59.20
2019-04-30T03:24:50.074Z,59.60
2019-04-30T03:27:20.476Z,62.00
2019-04-30T03:29:50.002Z,62.30
2019-04-30T03:32:21.518Z,62.30
2019-04-30T03:34:51.140Z,64.20
2019-04-30T03:37:16.370Z,65.60
2019-04-30T03:39:44.255Z,65.20
2019-04-30T03:42:12.018Z,65.40
2019-04-30T03:44:40.295Z,66.20
2019-04-30T03:47:11.024Z,67.30
2019-04-30T03:49:40.202Z,68.10
2019-04-30T03:52:12.594Z,69.30
2019-04-30T03:54:37.229Z,70.20
2019-04-30T03:57:05.017Z,70.80
2019-04-30T03:59:32.842Z,70.20
2019-04-30T04:02:12.900Z,70.30
2019-04-30T04:05:10.260Z,70.70
2019-04-30T04:07:43.657Z,70.80
2019-04-30T04:10:19.712Z,70.80
2019-04-30T04:12:49.813Z,70.10
2019-04-30T04:15:19.769Z,71.00
2019-04-30T04:17:46.780Z,69.40
2019-04-30T04:20:14.704Z,66.60
2019-04-30T04:22:42.582Z,66.70
2019-04-30T04:25:13.136Z,67.10
2019-04-30T04:27:40.098Z,67.70
2019-04-30T04:30:10.626Z,68.60
2019-04-30T04:32:40.561Z,68.10
2019-04-30T04:35:09.865Z,68.50
2019-04-30T04:37:39.523Z,69.60
2019-04-30T04:40:09.306Z,69.00
2019-04-30T04:42:39.614Z,68.60
2019-04-30T04:45:09.865Z,69.80
2019-04-30T04:47:39.902Z,69.40
2019-04-30T04:50:10.031Z,69.00
2019-04-30T04:52:39.463Z,68.90
2019-04-30T04:55:09.689Z,67.50
2019-04-30T04:57:36.684Z,66.40
2019-04-30T05:00:07.439Z,66.70
2019-04-30T05:02:49.624Z,66.70
2019-04-30T05:05:19.245Z,66.90
2019-04-30T05:07:48.488Z,66.30
2019-04-30T05:10:16.397Z,66.00
2019-04-30T05:12:44.235Z,66.00
2019-04-30T05:15:12.371Z,66.10
2019-04-30T05:17:40.144Z,65.40
2019-04-30T05:20:10.015Z,65.10
2019-04-30T05:22:38.929Z,65.20
2019-04-30T05:25:08.843Z,64.90
2019-04-30T05:27:36.807Z,65.00
2019-04-30T05:30:05.247Z,65.00
2019-04-30T05:32:33.064Z,64.30
2019-04-30T05:35:00.849Z,64.60
2019-04-30T05:37:28.745Z,63.80
2019-04-30T05:39:58.503Z,63.70
2019-04-30T05:42:26.170Z,62.70
2019-04-30T05:44:54.060Z,64.20
2019-04-30T05:47:21.844Z,64.30
2019-04-30T05:49:49.617Z,64.20
2019-04-30T05:52:19.719Z,62.90
2019-04-30T05:54:48.762Z,63.00
2019-04-30T05:57:16.757Z,62.80
2019-04-30T05:59:44.622Z,62.70
2019-04-30T06:02:12.407Z,62.40
2019-04-30T06:04:40.206Z,62.70
2019-04-30T06:07:08.620Z,61.80
2019-04-30T06:09:42.823Z,61.80
2019-04-30T06:12:33.138Z,61.80
2019-04-30T06:15:15.387Z,62.00
2019-04-30T06:17:57.945Z,62.20
2019-04-30T06:20:18.600Z,62.80
2019-04-30T06:22:46.292Z,63.00
2019-04-30T06:25:14.351Z,62.90
2019-04-30T06:27:42.239Z,62.90
2019-04-30T06:30:12.165Z,62.90
2019-04-30T06:32:39.986Z,62.90
2019-04-30T06:35:09.177Z,63.10
2019-04-30T06:37:39.083Z,63.10
2019-04-30T06:40:11.436Z,63.20
2019-04-30T06:42:39.220Z,63.30
2019-04-30T06:45:09.220Z,62.80
2019-04-30T06:47:38.938Z,62.80
2019-04-30T06:50:09.278Z,63.90
2019-04-30T06:52:38.872Z,64.30
2019-04-30T06:55:06.824Z,63.20
2019-04-30T06:57:34.755Z,64.70
2019-04-30T07:00:02.650Z,64.90
2019-04-30T07:02:30.867Z,64.90
2019-04-30T07:04:58.882Z,65.90
2019-04-30T07:07:38.466Z,64.40
2019-04-30T07:10:02.992Z,65.30
2019-04-30T07:12:53.113Z,65.20
2019-04-30T07:15:21.065Z,65.80
2019-04-30T07:17:49.260Z,66.40
2019-04-30T07:20:18.958Z,66.50
2019-04-30T07:22:53.394Z,67.40
2019-04-30T07:25:16.317Z,68.20
2019-04-30T07:27:44.236Z,69.10
2019-04-30T07:30:12.220Z,69.80
2019-04-30T07:32:40.018Z,69.10
2019-04-30T07:35:09.533Z,69.80
2019-04-30T07:37:39.153Z,70.50
2019-04-30T07:40:09.102Z,70.30
2019-04-30T07:42:42.622Z,69.20
2019-04-30T07:45:07.075Z,70.00
2019-04-30T07:47:34.893Z,70.40
2019-04-30T07:50:02.974Z,71.90
2019-04-30T07:52:34.379Z,71.70
2019-04-30T07:55:00.778Z,70.50
2019-04-30T07:57:29.197Z,70.40
2019-04-30T08:00:00.551Z,69.80
2019-04-30T08:02:30.398Z,69.00
2019-04-30T08:05:04.924Z,69.10
2019-04-30T08:07:32.771Z,67.80
2019-04-30T08:10:00.614Z,66.20
2019-04-30T08:12:33.561Z,65.70
2019-04-30T08:14:59.484Z,65.50
2019-04-30T08:17:28.942Z,65.70
2019-04-30T08:19:58.620Z,65.40
2019-04-30T08:22:26.579Z,64.10
2019-04-30T08:24:54.377Z,64.10
2019-04-30T08:27:22.252Z,63.70
2019-04-30T08:29:50.138Z,64.10
2019-04-30T08:32:19.106Z,64.30
2019-04-30T08:34:47.112Z,63.70
2019-04-30T08:37:17.614Z,64.00
2019-04-30T08:39:44.600Z,63.60
2019-04-30T08:42:12.403Z,64.10
2019-04-30T08:44:40.242Z,64.10
2019-04-30T08:47:08.616Z,63.30
2019-04-30T08:49:36.928Z,62.90
2019-04-30T08:52:04.908Z,62.50
2019-04-30T08:54:34.646Z,62.00
2019-04-30T08:57:02.379Z,62.70
2019-04-30T08:59:30.208Z,63.10
2019-04-30T09:01:58.888Z,63.60
2019-04-30T09:04:29.232Z,63.20
2019-04-30T09:06:57.071Z,61.80
2019-04-30T09:09:24.849Z,62.20
2019-04-30T09:11:55.664Z,61.90
2019-04-30T09:14:22.349Z,62.50
2019-04-30T09:16:51.375Z,62.00
2019-04-30T09:22:00.908Z,61.60
2019-04-30T09:24:30.955Z,61.40
2019-04-30T09:26:59.145Z,60.30
2019-04-30T09:29:29.068Z,60.50
2019-04-30T09:31:56.611Z,60.00
2019-04-30T09:34:24.412Z,60.30
2019-04-30T09:36:52.190Z,60.60
2019-04-30T09:39:22.846Z,60.30
2019-04-30T09:41:49.767Z,59.70
2019-04-30T09:44:19.377Z,65.00
2019-04-30T09:46:48.855Z,66.20
2019-04-30T09:49:16.780Z,68.30
2019-04-30T09:51:44.565Z,68.10
2019-04-30T09:54:13.404Z,67.00
2019-04-30T09:56:41.504Z,64.50
2019-04-30T09:59:09.320Z,65.00
2019-04-30T10:01:37.234Z,66.60
2019-04-30T10:04:05.387Z,66.90
2019-04-30T10:06:39.788Z,68.60
2019-04-30T10:09:05.847Z,68.30
2019-04-30T10:11:59.603Z,69.70
2019-04-30T10:14:27.516Z,69.50
2019-04-30T10:17:14.774Z,69.20
2019-04-30T10:19:42.559Z,70.60
2019-04-30T10:22:10.370Z,70.70
2019-04-30T10:24:39.292Z,70.10
2019-04-30T10:27:13.005Z,70.70
2019-04-30T10:29:36.930Z,70.70
2019-04-30T10:32:04.816Z,71.20
2019-04-30T10:34:32.615Z,70.90
2019-04-30T10:37:02.943Z,69.00
2019-04-30T10:39:30.570Z,68.70
2019-04-30T10:41:58.406Z,70.10
2019-04-30T10:44:26.285Z,69.20
2019-04-30T10:46:54.247Z,69.70
2019-04-30T10:49:22.074Z,71.10
2019-04-30T10:51:49.847Z,70.90
2019-04-30T10:54:26.066Z,70.80
2019-04-30T10:56:49.033Z,70.80
2019-04-30T10:59:17.000Z,70.30
2019-04-30T11:01:44.964Z,70.60
2019-04-30T11:04:15.393Z,71.90
2019-04-30T11:06:43.175Z,72.60
2019-04-30T11:09:11.118Z,71.60
2019-04-30T11:11:39.768Z,72.90
2019-04-30T11:14:07.865Z,72.60
2019-04-30T11:16:35.667Z,70.80
2019-04-30T11:19:04.476Z,70.70
2019-04-30T11:21:32.561Z,70.60
2019-04-30T11:24:00.543Z,70.40
2019-04-30T11:26:31.202Z,69.70
2019-04-30T11:28:58.271Z,68.80
2019-04-30T11:31:51.428Z,67.70
2019-04-30T11:34:19.306Z,68.00
2019-04-30T11:36:47.168Z,67.80
2019-04-30T11:39:18.613Z,67.10
2019-04-30T11:41:46.536Z,65.90
2019-04-30T11:44:27.291Z,65.20
2019-04-30T11:47:25.118Z,64.60
2019-04-30T11:49:53.087Z,63.40
2019-04-30T11:52:20.968Z,62.00
2019-04-30T11:54:53.944Z,62.90
2019-04-30T11:57:18.771Z,62.40
2019-04-30T11:59:46.575Z,61.80
2019-04-30T12:02:21.229Z,61.80
2019-04-30T12:04:49.517Z,62.00
2019-04-30T12:07:24.417Z,61.00
2019-04-30T12:10:02.303Z,59.90
2019-04-30T12:12:30.120Z,59.70
2019-04-30T12:15:00.252Z,59.70
2019-04-30T12:17:27.720Z,58.40
2019-04-30T12:19:55.542Z,59.10
2019-04-30T12:22:23.430Z,58.90
2019-04-30T12:25:02.244Z,59.80
2019-04-30T12:27:20.860Z,60.50
2019-04-30T12:29:49.538Z,60.40
2019-04-30T12:32:19.209Z,60.70
2019-04-30T12:34:47.251Z,59.90
2019-04-30T12:37:15.436Z,59.60
2019-04-30T12:39:43.218Z,59.40
2019-04-30T12:42:11.113Z,58.80
2019-04-30T12:44:40.089Z,58.30
2019-04-30T12:47:09.672Z,58.20
2019-04-30T12:49:50.299Z,58.00
2019-04-30T12:52:22.995Z,57.70
2019-04-30T12:55:14.872Z,57.50
2019-04-30T12:57:39.287Z,57.20
2019-04-30T13:00:10.009Z,57.40
2019-04-30T13:02:37.809Z,57.50
2019-04-30T13:05:06.105Z,57.50
2019-04-30T13:07:34.351Z,56.00
2019-04-30T13:10:03.128Z,56.00
2019-04-30T13:12:31.920Z,56.00
2019-04-30T13:15:00.129Z,57.40
2019-04-30T13:17:28.008Z,56.80
2019-04-30T13:19:55.785Z,56.70
2019-04-30T13:22:23.668Z,56.80
2019-04-30T13:24:52.061Z,56.50
2019-04-30T13:27:22.331Z,55.50
2019-04-30T13:30:14.539Z,54.50
2019-04-30T13:32:49.434Z,54.40
2019-04-30T13:35:19.012Z,55.80
2019-04-30T13:38:09.278Z,57.70
2019-04-30T13:41:05.468Z,59.10
2019-04-30T13:43:51.274Z,61.40
2019-04-30T13:46:19.082Z,68.20
2019-04-30T13:48:46.898Z,75.00
2019-04-30T13:51:14.771Z,78.20
2019-04-30T13:53:42.632Z,83.20
2019-04-30T13:56:10.453Z,84.80
2019-04-30T13:58:38.294Z,89.40
2019-04-30T14:01:06.412Z,92.70
2019-04-30T14:03:39.711Z,95.20
2019-04-30T14:06:09.099Z,97.00
2019-04-30T14:08:43.745Z,97.60
2019-04-30T14:11:11.973Z,99.20
2019-04-30T14:13:39.846Z,98.70
2019-04-30T14:16:07.881Z,99.90
2019-04-30T14:18:35.860Z,99.90
2019-04-30T14:21:03.791Z,99.90
2019-04-30T14:23:31.579Z,99.90
2019-04-30T14:26:01.217Z,99.90
2019-04-30T14:28:29.272Z,99.90
2019-04-30T14:30:57.465Z,99.90
2019-04-30T14:33:26.782Z,99.90
2019-04-30T14:35:55.170Z,99.90
2019-04-30T14:38:23.008Z,99.90
2019-04-30T14:40:51.723Z,99.90
2019-04-30T14:43:35.039Z,99.90
2019-04-30T14:46:32.068Z,99.90
2019-04-30T14:49:27.254Z,99.90
2019-04-30T14:51:56.326Z,99.90
2019-04-30T14:54:32.228Z,99.90
2019-04-30T14:57:04.883Z,99.90
2019-04-30T15:00:10.186Z,99.90
2019-04-30T15:02:41.958Z,99.90
2019-04-30T15:05:10.001Z,99.90
2019-04-30T15:07:39.547Z,99.90
2019-04-30T15:10:07.577Z,99.90
2019-04-30T15:12:35.717Z,99.90
2019-04-30T15:15:03.864Z,99.90
2019-04-30T15:17:31.779Z,99.90
2019-04-30T15:19:59.563Z,99.90
2019-04-30T15:22:29.066Z,99.90
2019-04-30T15:24:59.043Z,99.90
2019-04-30T15:27:26.607Z,99.00
2019-04-30T15:29:57.116Z,97.40
2019-04-30T15:32:24.025Z,95.20
2019-04-30T15:34:51.852Z,94.50
2019-04-30T15:37:23.670Z,94.30
2019-04-30T15:39:52.275Z,90.30
2019-04-30T15:42:21.045Z,90.30
2019-04-30T15:44:49.640Z,90.30
2019-04-30T15:47:18.942Z,90.80
2019-04-30T15:49:47.019Z,89.20
2019-04-30T15:52:14.899Z,83.50
2019-04-30T15:54:42.686Z,83.50
2019-04-30T15:57:10.462Z,88.50
2019-04-30T15:59:41.972Z,89.50
2019-04-30T16:02:28.748Z,90.60
2019-04-30T16:05:16.105Z,91.80
2019-04-30T16:07:51.589Z,91.50
2019-04-30T16:10:55.655Z,91.90
2019-04-30T16:13:30.521Z,91.50
2019-04-30T16:15:59.166Z,90.60
2019-04-30T16:18:32.049Z,91.30
2019-04-30T16:20:59.822Z,91.90
2019-04-30T16:23:27.734Z,92.50
2019-04-30T16:25:55.524Z,91.50
2019-04-30T16:28:23.335Z,91.30
2019-04-30T16:30:51.187Z,91.00
2019-04-30T16:33:19.854Z,90.60
2019-04-30T16:35:50.854Z,91.00
2019-04-30T16:38:18.348Z,91.20
2019-04-30T16:40:48.407Z,91.70
2019-04-30T16:43:18.663Z,91.90
2019-04-30T16:45:46.217Z,91.70
2019-04-30T16:48:14.022Z,91.20
2019-04-30T16:50:41.891Z,91.80
2019-04-30T16:53:09.758Z,91.80
2019-04-30T16:55:37.591Z,91.30
2019-04-30T16:58:05.455Z,91.50
2019-04-30T17:00:33.235Z,91.60
2019-04-30T17:03:05.370Z,91.00
2019-04-30T17:05:52.606Z,90.90
2019-04-30T17:08:29.878Z,90.10
2019-04-30T17:11:17.130Z,90.50
2019-04-30T17:13:51.364Z,90.30
2019-04-30T17:16:20.416Z,90.60
2019-04-30T17:18:49.967Z,90.70
2019-04-30T17:21:19.714Z,90.20
2019-04-30T17:23:50.671Z,89.60
2019-04-30T17:26:17.368Z,89.80
2019-04-30T17:28:45.153Z,89.00
2019-04-30T17:31:13.652Z,89.00
2019-04-30T17:33:41.980Z,88.30
2019-04-30T17:36:11.062Z,89.60
2019-04-30T17:38:39.047Z,89.20
2019-04-30T17:41:06.963Z,89.60
2019-04-30T17:43:34.865Z,88.50
2019-04-30T17:46:04.188Z,87.70
2019-04-30T17:48:32.145Z,87.80
2019-04-30T17:51:00.150Z,88.40
2019-04-30T17:53:28.821Z,88.90
2019-04-30T17:55:56.671Z,88.00
2019-04-30T17:58:24.479Z,86.00
2019-04-30T18:00:54.810Z,84.20
2019-04-30T18:03:24.085Z,81.60
2019-04-30T18:05:51.937Z,80.90
2019-04-30T18:08:20.269Z,78.90
2019-04-30T18:10:48.157Z,78.50
2019-04-30T18:13:16.028Z,77.80
2019-04-30T18:15:43.884Z,77.20
2019-04-30T18:18:29.635Z,76.30
2019-04-30T18:21:15.321Z,75.80
2019-04-30T18:24:14.461Z,75.40
2019-04-30T18:26:48.223Z,75.20
2019-04-30T18:29:16.011Z,75.20
2019-04-30T18:31:43.973Z,74.40
2019-04-30T18:34:11.915Z,74.90
2019-04-30T18:36:39.927Z,74.70
2019-04-30T18:39:08.951Z,74.60
2019-04-30T18:41:36.952Z,74.70
2019-04-30T18:44:04.757Z,75.10
2019-04-30T18:46:32.545Z,74.80
2019-04-30T18:49:00.380Z,75.50
2019-04-30T18:51:36.538Z,75.80
2019-04-30T18:53:58.016Z,74.60
2019-04-30T18:56:25.806Z,74.00
2019-04-30T18:58:53.666Z,74.50
2019-04-30T19:01:21.671Z,75.00
2019-04-30T19:03:49.517Z,75.50
2019-04-30T19:06:23.778Z,74.80
2019-04-30T19:09:11.609Z,74.60
2019-04-30T19:11:51.106Z,74.60
2019-04-30T19:14:44.201Z,74.90
2019-04-30T19:17:36.381Z,75.20
2019-04-30T19:20:20.203Z,75.00
2019-04-30T19:22:48.086Z,74.50
2019-04-30T19:25:16.041Z,74.40
2019-04-30T19:27:43.992Z,74.80
2019-04-30T19:30:12.148Z,73.90
2019-04-30T19:32:39.911Z,73.90
2019-04-30T19:35:09.106Z,74.00
2019-04-30T19:37:38.618Z,73.10
2019-04-30T19:40:08.924Z,73.20
2019-04-30T19:42:37.239Z,73.20
2019-04-30T19:45:10.188Z,72.30
2019-04-30T19:47:35.223Z,73.60
2019-04-30T19:50:03.755Z,73.10
2019-04-30T19:52:31.633Z,73.70
2019-04-30T19:54:59.398Z,73.00
2019-04-30T19:57:28.638Z,72.90
2019-04-30T19:59:58.543Z,73.60
2019-04-30T20:02:26.214Z,72.60
2019-04-30T20:07:21.251Z,73.50
2019-04-30T20:10:00.231Z,73.40
2019-04-30T20:12:19.415Z,73.50
2019-04-30T20:14:47.182Z,73.50
2019-04-30T20:17:15.026Z,72.70
2019-04-30T20:19:42.864Z,72.80
2019-04-30T20:22:10.808Z,73.20
2019-04-30T20:24:39.423Z,73.40
2019-04-30T20:27:09.950Z,72.80
2019-04-30T20:29:36.956Z,72.90
2019-04-30T20:32:04.744Z,73.60
2019-04-30T20:34:32.536Z,72.40
2019-04-30T20:37:00.466Z,72.60
2019-04-30T20:39:34.255Z,72.20
2019-04-30T20:42:02.073Z,72.60
2019-04-30T20:44:29.868Z,71.70
2019-04-30T20:46:59.091Z,71.70
2019-04-30T20:49:28.994Z,71.50
2019-04-30T20:51:58.760Z,71.80
2019-04-30T20:54:26.316Z,72.10
2019-04-30T20:56:54.124Z,72.00
2019-04-30T20:59:21.937Z,71.90
2019-04-30T21:01:49.776Z,71.80
2019-04-30T21:04:20.370Z,71.10
2019-04-30T21:06:47.178Z,71.50
2019-04-30T21:09:15.051Z,72.70
2019-04-30T21:11:45.157Z,72.10
2019-04-30T21:14:12.507Z,72.00
2019-04-30T21:16:40.303Z,71.50
2019-04-30T21:19:08.155Z,71.30
2019-04-30T21:21:35.938Z,72.80
2019-04-30T21:24:03.872Z,73.30
2019-04-30T21:26:31.750Z,73.70
2019-04-30T21:29:10.717Z,73.30
2019-04-30T21:31:47.016Z,73.10
2019-04-30T21:34:32.044Z,72.70
2019-04-30T21:36:59.902Z,74.00
2019-04-30T21:39:27.732Z,73.90
2019-04-30T21:41:55.534Z,73.90
2019-04-30T21:44:23.367Z,73.90
2019-04-30T21:46:51.171Z,74.00
2019-04-30T21:49:19.023Z,73.60
2019-04-30T21:51:46.831Z,72.90
2019-04-30T21:54:14.644Z,72.90
2019-04-30T21:56:42.485Z,73.70
2019-04-30T21:59:10.433Z,73.70
2019-04-30T22:01:38.454Z,72.60
2019-04-30T22:04:06.262Z,73.60
2019-04-30T22:06:34.119Z,73.60
2019-04-30T22:09:01.952Z,73.20
2019-04-30T22:11:29.817Z,72.90
2019-04-30T22:13:57.726Z,73.50
2019-04-30T22:16:25.491Z,73.30
2019-04-30T22:18:53.281Z,72.70
2019-04-30T22:21:21.119Z,73.90
2019-04-30T22:23:48.976Z,73.40
2019-04-30T22:26:16.891Z,72.90
2019-04-30T22:28:44.719Z,73.30
2019-04-30T22:31:12.493Z,74.10
2019-04-30T22:33:40.328Z,73.30
2019-04-30T22:36:33.221Z,73.20
2019-04-30T22:39:21.665Z,73.40
2019-04-30T22:41:49.728Z,73.10
2019-04-30T22:44:17.531Z,74.00
2019-04-30T22:46:45.354Z,75.60
2019-04-30T22:49:13.238Z,74.80
2019-04-30T22:51:41.029Z,74.40
2019-04-30T22:54:08.829Z,74.60
2019-04-30T22:56:36.772Z,75.00
2019-04-30T22:59:04.602Z,75.00
2019-04-30T23:01:51.919Z,75.50
2019-04-30T23:04:36.496Z,76.50
2019-04-30T23:07:04.464Z,76.90
2019-04-30T23:09:32.355Z,77.80
2019-04-30T23:12:00.176Z,77.70
2019-04-30T23:14:28.030Z,76.30
2019-04-30T23:16:55.824Z,77.40
2019-04-30T23:19:23.677Z,77.30
2019-04-30T23:21:51.443Z,77.30
2019-04-30T23:24:19.435Z,76.50
2019-04-30T23:26:47.359Z,76.00
2019-04-30T23:29:15.180Z,75.70
2019-04-30T23:31:42.991Z,75.70
2019-04-30T23:34:17.796Z,76.60
2019-04-30T23:36:40.453Z,76.20
2019-04-30T23:39:09.259Z,76.30
2019-04-30T23:41:37.058Z,76.30
2019-04-30T23:44:05.081Z,76.70
2019-04-30T23:46:32.890Z,77.10
2019-04-30T23:49:00.688Z,77.20
2019-04-30T23:51:28.567Z,77.30
2019-04-30T23:53:56.355Z,77.10
2019-04-30T23:56:24.143Z,77.30
2019-04-30T23:58:52.020Z,77.90
